Time;durP1;ratioP1;P1;durP2;ratioP2;P2;SDS_P1;SDS_P2;PMS_P1;PMS_P2;Temp;Humidity;BMP_temperature;BMP_pressure;BME280_temperature;BME280_humidity;BME280_pressure;Samples;Min_cycle;Max_cycle;Signal;HPM_P1;HPM_P2
2022/11/01 00:01:51;;;;;;;42.10;21.52;;;;;;;;;;5035202;28;20418;-77
2022/11/01 00:04:17;;;;;;;39.35;21.67;;;;;;;;;;5036694;28;20478;-77
2022/11/01 00:06:42;;;;;;;49.60;22.23;;;;;;;;;;5036359;28;20549;-78
2022/11/01 00:09:07;;;;;;;43.45;22.13;;;;;;;;;;5035776;28;20048;-77
2022/11/01 00:11:33;;;;;;;39.50;20.48;;;;;;;;;;5035854;28;20087;-77
2022/11/01 00:13:58;;;;;;;49.47;21.90;;;;;;;;;;5035978;28;20040;-78
2022/11/01 00:16:24;;;;;;;43.17;22.10;;;;;;;;;;5036534;28;20467;-77
2022/11/01 00:18:49;;;;;;;49.67;21.98;;;;;;;;;;5036240;28;20053;-77
2022/11/01 00:21:16;;;;;;;42.45;22.10;;;;;;;;;;5036222;28;20440;-77
2022/11/01 00:23:41;;;;;;;48.00;22.92;;;;;;;;;;5036251;28;20029;-76
2022/11/01 00:26:08;;;;;;;41.10;22.52;;;;;;;;;;5035930;28;20022;-78
2022/11/01 00:28:34;;;;;;;37.92;19.10;;;;;;;;;;5036317;28;20030;-77
2022/11/01 00:31:00;;;;;;;37.75;19.92;;;;;;;;;;5034565;28;20021;-77
2022/11/01 00:33:25;;;;;;;34.78;18.08;;;;;;;;;;5036162;28;20079;-78
2022/11/01 00:35:51;;;;;;;32.67;18.00;;;;;;;;;;5034829;28;20029;-77
2022/11/01 00:38:17;;;;;;;33.20;17.20;;;;;;;;;;5036073;28;20389;-77
2022/11/01 00:40:43;;;;;;;32.13;17.77;;;;;;;;;;5036104;28;20037;-77
2022/11/01 00:43:09;;;;;;;37.20;17.35;;;;;;;;;;5035893;28;20545;-77
2022/11/01 00:45:34;;;;;;;28.38;16.63;;;;;;;;;;5035883;28;20030;-77
2022/11/01 00:48:00;;;;;;;26.98;15.90;;;;;;;;;;5035762;28;20022;-77
2022/11/01 00:50:25;;;;;;;28.70;17.50;;;;;;;;;;5035321;28;20032;-77
2022/11/01 00:52:50;;;;;;;30.73;16.77;;;;;;;;;;5035740;28;20100;-77
2022/11/01 00:55:16;;;;;;;31.70;16.70;;;;;;;;;;5035902;28;20394;-78
2022/11/01 00:57:45;;;;;;;27.98;16.02;;;;;;;;;;5035432;28;20039;-77
2022/11/01 01:00:13;;;;;;;30.27;17.23;;;;;;;;;;5035633;28;20105;-77
2022/11/01 01:02:38;;;;;;;29.38;16.70;;;;;;;;;;5034098;28;20025;-77
2022/11/01 01:05:04;;;;;;;41.03;19.23;;;;;;;;;;5035226;28;20017;-77
2022/11/01 01:07:30;;;;;;;42.38;20.05;;;;;;;;;;5035225;28;20033;-77
2022/11/01 01:09:55;;;;;;;39.83;19.52;;;;;;;;;;5035034;28;20033;-77
2022/11/01 01:12:20;;;;;;;42.67;21.33;;;;;;;;;;5035152;28;20026;-77
2022/11/01 01:14:46;;;;;;;42.83;21.13;;;;;;;;;;5034893;28;20037;-77
2022/11/01 01:17:11;;;;;;;39.83;21.20;;;;;;;;;;5035041;28;20028;-78
2022/11/01 01:19:36;;;;;;;40.95;20.42;;;;;;;;;;5017049;28;20028;-78
2022/11/01 01:22:02;;;;;;;40.08;20.75;;;;;;;;;;5033920;28;20389;-77
2022/11/01 01:24:27;;;;;;;42.08;20.65;;;;;;;;;;5034855;28;20071;-78
2022/11/01 01:26:53;;;;;;;47.30;21.23;;;;;;;;;;5035520;28;20030;-78
2022/11/01 01:29:18;;;;;;;38.03;18.95;;;;;;;;;;5035363;28;20029;-78
2022/11/01 01:31:43;;;;;;;38.15;18.38;;;;;;;;;;5034042;28;20056;-78
2022/11/01 01:34:08;;;;;;;34.03;17.17;;;;;;;;;;5034939;28;20091;-78
2022/11/01 01:36:34;;;;;;;29.92;17.08;;;;;;;;;;5035116;28;20144;-77
2022/11/01 01:38:59;;;;;;;37.38;18.05;;;;;;;;;;5034979;28;20022;-77
2022/11/01 01:44:46;;;;;;;35.30;13.70;;;;;;;;;;5035800;28;20100;-77
2022/11/01 01:47:18;;;;;;;31.08;14.40;;;;;;;;;;5034088;28;20033;-77
2022/11/01 01:49:44;;;;;;;30.13;15.15;;;;;;;;;;5035606;28;20055;-78
2022/11/01 01:52:10;;;;;;;28.83;14.23;;;;;;;;;;5036246;28;20025;-77
2022/11/01 01:54:36;;;;;;;30.35;15.40;;;;;;;;;;5034441;28;20393;-77
2022/11/01 01:57:01;;;;;;;28.35;13.98;;;;;;;;;;5034360;28;20036;-78
2022/11/01 01:59:27;;;;;;;24.30;13.40;;;;;;;;;;5034153;28;20036;-77
2022/11/01 02:01:52;;;;;;;35.05;14.85;;;;;;;;;;5034470;28;20017;-76
2022/11/01 02:04:30;;;;;;;30.67;14.98;;;;;;;;;;5034252;28;20029;-78
2022/11/01 02:06:57;;;;;;;23.92;13.30;;;;;;;;;;5034922;28;20467;-77
2022/11/01 02:09:23;;;;;;;31.05;14.98;;;;;;;;;;5033335;28;20075;-77
2022/11/01 02:11:48;;;;;;;32.25;14.48;;;;;;;;;;5034048;28;20021;-77
2022/11/01 02:14:15;;;;;;;27.55;14.82;;;;;;;;;;5034147;28;20049;-77
2022/11/01 02:17:13;;;;;;;31.58;14.32;;;;;;;;;;5035544;28;20028;-79
2022/11/01 02:20:03;;;;;;;26.23;14.27;;;;;;;;;;5034645;28;20032;-77
2022/11/01 02:23:00;;;;;;;31.58;12.90;;;;;;;;;;5035021;28;20087;-77
2022/11/01 02:25:43;;;;;;;29.60;13.95;;;;;;;;;;5034553;28;20057;-77
2022/11/01 02:28:42;;;;;;;26.95;14.45;;;;;;;;;;5035143;28;20029;-78
2022/11/01 02:31:34;;;;;;;22.55;12.27;;;;;;;;;;5033557;28;20048;-77
2022/11/01 02:34:23;;;;;;;28.52;13.23;;;;;;;;;;5034288;28;20018;-78
2022/11/01 02:37:00;;;;;;;24.35;12.30;;;;;;;;;;5033534;28;20513;-77
2022/11/01 02:39:33;;;;;;;26.65;12.25;;;;;;;;;;5033470;28;20068;-77
2022/11/01 02:42:05;;;;;;;25.25;11.77;;;;;;;;;;5033101;28;20029;-77
2022/11/01 02:44:36;;;;;;;23.20;12.35;;;;;;;;;;5034362;28;20025;-79
2022/11/01 02:47:03;;;;;;;19.52;11.60;;;;;;;;;;5034188;28;20029;-77
2022/11/01 02:49:46;;;;;;;25.88;11.85;;;;;;;;;;5034321;28;20025;-78
2022/11/01 02:52:16;;;;;;;23.83;11.60;;;;;;;;;;5033511;28;20048;-77
2022/11/01 02:54:48;;;;;;;19.83;11.38;;;;;;;;;;5033815;28;20095;-77
2022/11/01 02:57:35;;;;;;;22.63;11.55;;;;;;;;;;5015717;28;20024;-77
2022/11/01 03:00:19;;;;;;;21.77;11.38;;;;;;;;;;5033757;28;20029;-78
2022/11/01 03:02:44;;;;;;;18.00;9.32;;;;;;;;;;5034304;28;20029;-77
2022/11/01 03:05:27;;;;;;;20.00;10.25;;;;;;;;;;5033732;28;20033;-77
2022/11/01 03:08:06;;;;;;;18.85;9.50;;;;;;;;;;5037512;28;20033;-77
2022/11/01 03:10:44;;;;;;;18.15;9.65;;;;;;;;;;5036344;28;20402;-77
2022/11/01 03:13:28;;;;;;;17.08;9.80;;;;;;;;;;5038182;28;20068;-77
2022/11/01 03:16:08;;;;;;;17.05;10.18;;;;;;;;;;5037467;28;20025;-78
2022/11/01 03:18:56;;;;;;;20.08;9.43;;;;;;;;;;5036538;28;20025;-78
2022/11/01 03:21:24;;;;;;;19.17;9.50;;;;;;;;;;5038387;28;20027;-77
2022/11/01 03:24:01;;;;;;;21.38;9.48;;;;;;;;;;5037139;28;20044;-76
2022/11/01 03:26:31;;;;;;;16.63;8.70;;;;;;;;;;5038030;28;20056;-77
2022/11/01 03:29:01;;;;;;;16.27;9.38;;;;;;;;;;5037884;28;20409;-77
2022/11/01 03:31:32;;;;;;;16.33;9.25;;;;;;;;;;5037619;28;20029;-77
2022/11/01 03:34:01;;;;;;;14.13;8.82;;;;;;;;;;5037621;28;20022;-76
2022/11/01 03:36:34;;;;;;;21.55;9.35;;;;;;;;;;5036857;28;20478;-77
2022/11/01 03:39:05;;;;;;;14.48;9.00;;;;;;;;;;5037331;28;20053;-77
2022/11/01 03:41:37;;;;;;;16.20;9.10;;;;;;;;;;5037188;28;20100;-78
2022/11/01 03:44:03;;;;;;;18.35;9.25;;;;;;;;;;5037314;28;20029;-78
2022/11/01 03:46:29;;;;;;;19.95;9.35;;;;;;;;;;5035847;28;20116;-78
2022/11/01 03:48:54;;;;;;;19.70;9.35;;;;;;;;;;5037257;28;20022;-78
2022/11/01 03:51:19;;;;;;;17.23;8.57;;;;;;;;;;5036888;28;20029;-78
2022/11/01 03:53:44;;;;;;;15.80;8.63;;;;;;;;;;5037569;28;20029;-78
2022/11/01 03:56:10;;;;;;;16.33;9.18;;;;;;;;;;5037222;28;20060;-77
2022/11/01 03:58:41;;;;;;;15.05;8.82;;;;;;;;;;5037233;28;20487;-78
2022/11/01 04:01:11;;;;;;;15.95;8.77;;;;;;;;;;5036239;28;20096;-78
2022/11/01 04:03:37;;;;;;;15.68;8.98;;;;;;;;;;5036941;28;20030;-78
2022/11/01 04:06:04;;;;;;;17.10;8.38;;;;;;;;;;5037476;28;20064;-77
2022/11/01 04:08:29;;;;;;;19.40;8.57;;;;;;;;;;5038586;28;20018;-77
2022/11/01 04:10:54;;;;;;;17.05;8.05;;;;;;;;;;5037964;28;20025;-78
2022/11/01 04:13:19;;;;;;;16.00;7.80;;;;;;;;;;5037714;28;20021;-77
2022/11/01 04:21:15;;;;;;;13.57;8.60;;;;;;;;;;5041709;28;20072;-78
2022/11/01 04:23:41;;;;;;;14.48;8.23;;;;;;;;;;5042160;28;20021;-78
2022/11/01 04:26:10;;;;;;;14.23;8.27;;;;;;;;;;5040955;28;20394;-77
2022/11/01 04:28:36;;;;;;;17.50;8.02;;;;;;;;;;5036583;28;20490;-78
2022/11/01 04:31:02;;;;;;;14.05;7.78;;;;;;;;;;5036850;28;20048;-78
2022/11/01 04:33:27;;;;;;;20.67;8.52;;;;;;;;;;5036886;28;20021;-77
2022/11/01 04:35:52;;;;;;;13.82;7.53;;;;;;;;;;5041287;28;20037;-78
2022/11/01 04:38:17;;;;;;;14.00;7.50;;;;;;;;;;5041910;28;20425;-79
2022/11/01 04:40:43;;;;;;;14.57;7.75;;;;;;;;;;5040535;28;20025;-79
2022/11/01 04:43:09;;;;;;;17.83;8.10;;;;;;;;;;5039406;28;20466;-78
2022/11/01 04:45:35;;;;;;;12.48;8.00;;;;;;;;;;5040958;28;20030;-78
2022/11/01 04:48:04;;;;;;;13.50;7.38;;;;;;;;;;5040556;28;20033;-78
2022/11/01 04:50:30;;;;;;;13.98;8.13;;;;;;;;;;5040525;28;20026;-78
2022/11/01 04:52:57;;;;;;;14.75;7.68;;;;;;;;;;5040338;28;20025;-79
2022/11/01 04:55:22;;;;;;;13.30;7.65;;;;;;;;;;5037234;28;20175;-77
2022/11/01 04:57:47;;;;;;;15.38;7.68;;;;;;;;;;5035692;28;20055;-79
2022/11/01 05:00:13;;;;;;;15.80;7.68;;;;;;;;;;5036019;28;20029;-77
2022/11/01 05:02:39;;;;;;;14.75;7.75;;;;;;;;;;5036066;28;20029;-78
2022/11/01 05:05:06;;;;;;;12.68;7.40;;;;;;;;;;5018292;28;20501;-77
2022/11/01 05:07:32;;;;;;;13.98;7.72;;;;;;;;;;5018713;28;20415;-78
2022/11/01 05:09:57;;;;;;;15.60;7.65;;;;;;;;;;5037998;28;20079;-77
2022/11/01 05:12:23;;;;;;;14.52;7.18;;;;;;;;;;5035874;28;20033;-78
2022/11/01 05:14:49;;;;;;;16.23;7.47;;;;;;;;;;5036291;28;20021;-78
2022/11/01 05:17:14;;;;;;;15.93;8.05;;;;;;;;;;5035678;28;20021;-78
2022/11/01 05:19:39;;;;;;;11.95;7.18;;;;;;;;;;5035852;28;20022;-77
2022/11/01 05:22:04;;;;;;;12.82;6.97;;;;;;;;;;5035608;28;20070;-77
2022/11/01 05:24:29;;;;;;;11.75;7.05;;;;;;;;;;5038071;28;20029;-78
2022/11/01 05:26:55;;;;;;;11.70;7.05;;;;;;;;;;5040195;28;20108;-78
2022/11/01 05:29:20;;;;;;;14.18;7.72;;;;;;;;;;5035228;28;20033;-78
2022/11/01 05:31:45;;;;;;;10.13;6.53;;;;;;;;;;5035821;28;20043;-78
2022/11/01 05:34:11;;;;;;;16.77;8.13;;;;;;;;;;5034880;28;20036;-78
2022/11/01 05:36:36;;;;;;;12.80;7.63;;;;;;;;;;5035453;28;20104;-79
2022/11/01 05:39:01;;;;;;;13.35;7.40;;;;;;;;;;5037093;28;20490;-79
2022/11/01 05:41:26;;;;;;;13.05;6.57;;;;;;;;;;5035683;28;20067;-78
2022/11/01 05:43:52;;;;;;;13.25;6.72;;;;;;;;;;5034150;28;20034;-79
2022/11/01 05:46:17;;;;;;;13.20;6.88;;;;;;;;;;5035321;28;20025;-78
2022/11/01 05:48:42;;;;;;;17.85;7.47;;;;;;;;;;5035568;28;20021;-78
2022/11/01 05:51:08;;;;;;;12.23;7.40;;;;;;;;;;5035342;28;20099;-77
2022/11/01 05:53:34;;;;;;;13.43;7.35;;;;;;;;;;5035471;28;20152;-77
2022/11/01 05:55:59;;;;;;;13.77;7.25;;;;;;;;;;5034425;28;20104;-77
2022/11/01 05:58:25;;;;;;;13.07;7.43;;;;;;;;;;5034889;28;20018;-77
2022/11/01 06:00:58;;;;;;;14.35;8.05;;;;;;;;;;5034106;28;20033;-77
2022/11/01 06:03:23;;;;;;;17.73;8.15;;;;;;;;;;5034257;28;20022;-78
2022/11/01 06:05:48;;;;;;;13.40;7.80;;;;;;;;;;5034998;28;20481;-78
2022/11/01 06:08:14;;;;;;;14.93;7.78;;;;;;;;;;5032692;28;20032;-77
2022/11/01 06:10:39;;;;;;;16.05;7.78;;;;;;;;;;5033071;28;20444;-78
2022/11/01 06:13:04;;;;;;;15.55;8.30;;;;;;;;;;5036605;28;20378;-78
2022/11/01 06:15:30;;;;;;;14.35;8.48;;;;;;;;;;5034535;28;20032;-77
2022/11/01 06:17:57;;;;;;;15.32;7.95;;;;;;;;;;5034333;28;20101;-78
2022/11/01 06:20:22;;;;;;;14.75;7.97;;;;;;;;;;5034207;28;20029;-78
2022/11/01 06:22:47;;;;;;;14.98;7.10;;;;;;;;;;5034107;28;20028;-78
2022/11/01 06:25:12;;;;;;;12.57;7.45;;;;;;;;;;5033267;28;20018;-76
2022/11/01 06:27:38;;;;;;;17.63;8.18;;;;;;;;;;5034281;28;20064;-77
2022/11/01 06:30:04;;;;;;;14.35;8.00;;;;;;;;;;5034045;28;20033;-78
2022/11/01 06:32:29;;;;;;;19.30;8.35;;;;;;;;;;5034775;28;20017;-78
2022/11/01 06:34:54;;;;;;;16.70;8.23;;;;;;;;;;5034149;28;20025;-77
2022/11/01 06:37:20;;;;;;;13.77;7.75;;;;;;;;;;5034468;28;20018;-78
2022/11/01 06:39:45;;;;;;;14.57;7.60;;;;;;;;;;5034919;28;20478;-77
2022/11/01 06:42:10;;;;;;;15.25;7.88;;;;;;;;;;5034186;28;20025;-77
2022/11/01 06:44:36;;;;;;;13.07;7.43;;;;;;;;;;5034079;28;20021;-80
2022/11/01 06:47:01;;;;;;;15.98;7.15;;;;;;;;;;5033803;28;20034;-77
2022/11/01 06:49:28;;;;;;;13.73;7.03;;;;;;;;;;5033544;28;20048;-78
2022/11/01 06:51:53;;;;;;;14.40;7.90;;;;;;;;;;5033940;28;20057;-77
2022/11/01 06:54:19;;;;;;;15.40;7.65;;;;;;;;;;5035414;28;20017;-77
2022/11/01 06:56:46;;;;;;;16.48;7.45;;;;;;;;;;5032071;28;20520;-77
2022/11/01 06:59:11;;;;;;;14.70;7.80;;;;;;;;;;5033520;28;20033;-78
2022/11/01 07:01:37;;;;;;;13.73;8.00;;;;;;;;;;5033488;28;20088;-77
2022/11/01 07:04:02;;;;;;;11.77;7.10;;;;;;;;;;5033169;28;20037;-78
2022/11/01 07:06:29;;;;;;;16.73;7.63;;;;;;;;;;5034546;28;20497;-77
2022/11/01 07:08:55;;;;;;;12.18;7.22;;;;;;;;;;5032199;28;20116;-77
2022/11/01 07:11:20;;;;;;;11.95;7.07;;;;;;;;;;5033483;28;20112;-77
2022/11/01 07:13:45;;;;;;;12.00;6.80;;;;;;;;;;5033507;28;20109;-77
2022/11/01 07:16:10;;;;;;;11.93;7.30;;;;;;;;;;5033356;28;20032;-79
2022/11/01 07:18:36;;;;;;;11.90;7.70;;;;;;;;;;5033481;28;20056;-78
2022/11/01 07:21:02;;;;;;;11.07;6.72;;;;;;;;;;5033107;28;20538;-78
2022/11/01 07:23:28;;;;;;;11.73;6.45;;;;;;;;;;5033823;28;20386;-77
2022/11/01 07:25:53;;;;;;;13.00;7.38;;;;;;;;;;5032406;28;20018;-77
2022/11/01 07:28:19;;;;;;;10.38;6.53;;;;;;;;;;5032968;28;20025;-77
2022/11/01 07:30:51;;;;;;;12.95;7.10;;;;;;;;;;5032768;28;20063;-77
2022/11/01 07:33:17;;;;;;;12.88;6.82;;;;;;;;;;5031755;28;20067;-77
2022/11/01 07:35:43;;;;;;;11.00;7.03;;;;;;;;;;5033063;28;20025;-76
2022/11/01 07:38:09;;;;;;;14.15;6.97;;;;;;;;;;5033451;28;20017;-77
2022/11/01 07:40:35;;;;;;;13.95;6.80;;;;;;;;;;5032969;28;20089;-78
2022/11/01 07:43:01;;;;;;;10.13;6.97;;;;;;;;;;5033326;28;20142;-78
2022/11/01 07:45:28;;;;;;;15.50;7.15;;;;;;;;;;5034144;28;20045;-77
2022/11/01 07:48:01;;;;;;;10.55;6.40;;;;;;;;;;5033021;28;20032;-77
2022/11/01 07:50:28;;;;;;;9.23;6.22;;;;;;;;;;5032818;28;20021;-77
2022/11/01 07:53:04;;;;;;;12.13;5.97;;;;;;;;;;5033994;28;20025;-78
2022/11/01 07:55:30;;;;;;;10.50;6.13;;;;;;;;;;5035750;28;20548;-78
2022/11/01 07:57:56;;;;;;;10.48;6.15;;;;;;;;;;5036495;28;20033;-77
2022/11/01 08:00:22;;;;;;;11.02;6.50;;;;;;;;;;5035288;28;20474;-77
2022/11/01 08:02:47;;;;;;;10.10;6.18;;;;;;;;;;5036190;28;20035;-77
2022/11/01 08:05:12;;;;;;;9.00;6.05;;;;;;;;;;5036998;28;20024;-78
2022/11/01 08:07:39;;;;;;;12.30;6.15;;;;;;;;;;5035103;28;20482;-77
2022/11/01 08:10:06;;;;;;;10.55;6.60;;;;;;;;;;5036169;28;20052;-77
2022/11/01 08:12:31;;;;;;;15.70;6.28;;;;;;;;;;5036710;28;20029;-78
2022/11/01 08:14:57;;;;;;;10.98;5.90;;;;;;;;;;5018398;28;20367;-77
2022/11/01 08:17:22;;;;;;;10.50;5.95;;;;;;;;;;5036168;28;20028;-77
2022/11/01 08:19:47;;;;;;;11.00;6.60;;;;;;;;;;5018328;28;20545;-78
2022/11/01 08:22:13;;;;;;;10.13;6.20;;;;;;;;;;5036512;28;20025;-78
2022/11/01 08:24:38;;;;;;;9.82;5.93;;;;;;;;;;5034596;28;20064;-76
2022/11/01 08:27:03;;;;;;;13.60;6.53;;;;;;;;;;5035966;28;20382;-78
2022/11/01 08:29:29;;;;;;;9.98;5.75;;;;;;;;;;5037874;28;20036;-78
2022/11/01 08:31:54;;;;;;;13.05;5.93;;;;;;;;;;5035707;28;20025;-77
2022/11/01 08:34:19;;;;;;;11.13;6.22;;;;;;;;;;5035954;28;20040;-77
2022/11/01 08:36:44;;;;;;;11.10;6.03;;;;;;;;;;5034669;28;20021;-77
2022/11/01 08:39:10;;;;;;;11.85;6.50;;;;;;;;;;5035698;28;20107;-77
2022/11/01 08:41:35;;;;;;;11.15;6.05;;;;;;;;;;5034420;28;20026;-76
2022/11/01 08:44:00;;;;;;;8.48;5.97;;;;;;;;;;5036243;28;20033;-76
2022/11/01 08:46:26;;;;;;;11.02;6.47;;;;;;;;;;5036363;28;20378;-78
2022/11/01 08:48:55;;;;;;;11.13;7.15;;;;;;;;;;5035835;28;20018;-77
2022/11/01 08:51:24;;;;;;;12.65;7.13;;;;;;;;;;5035522;28;20057;-77
2022/11/01 08:53:52;;;;;;;11.70;7.60;;;;;;;;;;5017663;28;20025;-78
2022/11/01 08:56:19;;;;;;;11.25;7.32;;;;;;;;;;5035515;28;20021;-77
2022/11/01 08:58:47;;;;;;;13.73;7.40;;;;;;;;;;5035196;28;20500;-77
2022/11/01 09:01:12;;;;;;;11.55;7.75;;;;;;;;;;5035595;28;20478;-78
2022/11/01 09:03:38;;;;;;;11.07;6.90;;;;;;;;;;5035570;28;20021;-78
2022/11/01 09:06:03;;;;;;;18.52;7.70;;;;;;;;;;5035141;28;20489;-77
2022/11/01 09:08:28;;;;;;;15.93;7.68;;;;;;;;;;5034789;28;20018;-77
2022/11/01 09:10:57;;;;;;;14.68;7.80;;;;;;;;;;5034652;28;20597;-77
2022/11/01 09:13:22;;;;;;;16.52;7.57;;;;;;;;;;5034255;28;20021;-77
2022/11/01 09:15:47;;;;;;;12.82;7.70;;;;;;;;;;5034804;28;20022;-77
2022/11/01 09:18:13;;;;;;;16.05;7.40;;;;;;;;;;5035491;28;20018;-77
2022/11/01 09:20:38;;;;;;;12.27;7.57;;;;;;;;;;5033980;28;20044;-78
2022/11/01 09:23:03;;;;;;;12.75;7.25;;;;;;;;;;5035365;28;20018;-77
2022/11/01 09:25:28;;;;;;;15.15;8.05;;;;;;;;;;5035296;28;20127;-76
2022/11/01 09:27:56;;;;;;;12.80;7.05;;;;;;;;;;5034839;28;20057;-77
2022/11/01 09:30:21;;;;;;;13.98;6.88;;;;;;;;;;5034828;28;20119;-78
2022/11/01 09:32:46;;;;;;;14.90;7.45;;;;;;;;;;5034608;28;20025;-77
2022/11/01 09:35:12;;;;;;;13.23;7.38;;;;;;;;;;5034503;28;20048;-77
2022/11/01 09:37:37;;;;;;;15.00;7.28;;;;;;;;;;5034666;28;20108;-77
2022/11/01 09:40:03;;;;;;;13.80;7.35;;;;;;;;;;5034817;28;20021;-78
2022/11/01 09:42:35;;;;;;;18.33;7.53;;;;;;;;;;5034313;28;20087;-78
2022/11/01 09:45:08;;;;;;;14.88;7.18;;;;;;;;;;5034919;28;20501;-76
2022/11/01 09:47:35;;;;;;;11.82;7.00;;;;;;;;;;5033034;28;20035;-76
2022/11/01 09:50:10;;;;;;;11.02;6.93;;;;;;;;;;5034460;28;20029;-77
2022/11/01 09:52:35;;;;;;;11.68;6.88;;;;;;;;;;5034565;28;20478;-79
2022/11/01 09:55:01;;;;;;;11.85;7.47;;;;;;;;;;5034224;28;20036;-77
2022/11/01 09:57:34;;;;;;;11.35;7.55;;;;;;;;;;5034228;28;20474;-78
2022/11/01 10:00:14;;;;;;;13.83;7.20;;;;;;;;;;5034293;28;20482;-77
2022/11/01 10:03:05;;;;;;;12.80;7.50;;;;;;;;;;5032640;28;20049;-77
2022/11/01 10:05:55;;;;;;;12.70;7.30;;;;;;;;;;5033561;28;20028;-78
2022/11/01 10:08:33;;;;;;;13.13;7.32;;;;;;;;;;5017360;28;20075;-77
2022/11/01 10:11:15;;;;;;;15.82;7.50;;;;;;;;;;5032460;28;20030;-78
2022/11/01 10:14:04;;;;;;;11.98;6.90;;;;;;;;;;5033830;28;20049;-77
2022/11/01 10:16:59;;;;;;;13.30;7.55;;;;;;;;;;5033673;28;20025;-78
2022/11/01 10:19:29;;;;;;;13.32;7.05;;;;;;;;;;5025617;28;20041;-77
2022/11/01 10:22:05;;;;;;;16.38;7.88;;;;;;;;;;5034747;28;20045;-77
2022/11/01 10:24:33;;;;;;;19.98;8.02;;;;;;;;;;5034451;28;20422;-78
2022/11/01 10:27:04;;;;;;;12.27;6.97;;;;;;;;;;5016085;28;20029;-78
2022/11/01 10:29:38;;;;;;;11.70;6.75;;;;;;;;;;5032828;28;20457;-77
2022/11/01 10:32:18;;;;;;;16.55;7.88;;;;;;;;;;5033810;28;20021;-78
2022/11/01 10:34:44;;;;;;;14.45;7.55;;;;;;;;;;5033543;28;20500;-77
2022/11/01 10:37:32;;;;;;;14.93;7.55;;;;;;;;;;5034112;28;20033;-77
2022/11/01 10:40:07;;;;;;;12.48;7.22;;;;;;;;;;5032071;28;20026;-77
2022/11/01 10:42:32;;;;;;;14.43;7.28;;;;;;;;;;5033694;28;20033;-77
2022/11/01 10:45:02;;;;;;;13.90;7.80;;;;;;;;;;5033676;28;20023;-78
2022/11/01 10:47:27;;;;;;;12.05;7.32;;;;;;;;;;5033576;28;20057;-77
2022/11/01 10:49:58;;;;;;;13.73;7.32;;;;;;;;;;5033207;28;20427;-77
2022/11/01 10:52:27;;;;;;;16.48;7.43;;;;;;;;;;5033590;28;20064;-77
2022/11/01 10:54:55;;;;;;;12.23;7.53;;;;;;;;;;5033220;28;20113;-77
2022/11/01 10:57:44;;;;;;;13.35;7.95;;;;;;;;;;5033272;28;20025;-76
2022/11/01 11:00:16;;;;;;;16.55;7.32;;;;;;;;;;5032468;28;20030;-77
2022/11/01 11:02:45;;;;;;;13.65;7.00;;;;;;;;;;5033879;28;20344;-78
2022/11/01 11:05:12;;;;;;;13.15;7.72;;;;;;;;;;5033394;28;20030;-77
2022/11/01 11:07:38;;;;;;;13.40;7.13;;;;;;;;;;5033551;28;20486;-77
2022/11/01 11:10:25;;;;;;;12.52;7.40;;;;;;;;;;5033154;28;20053;-79
2022/11/01 11:12:56;;;;;;;13.73;7.68;;;;;;;;;;5033497;28;20025;-77
2022/11/01 11:15:32;;;;;;;16.83;7.68;;;;;;;;;;5034285;28;20029;-77
2022/11/01 11:18:01;;;;;;;13.68;7.55;;;;;;;;;;5032447;28;20025;-75
2022/11/01 11:20:29;;;;;;;14.75;7.43;;;;;;;;;;5033167;28;20029;-78
2022/11/01 11:22:55;;;;;;;12.68;6.75;;;;;;;;;;5033763;28;20021;-78
2022/11/01 11:25:29;;;;;;;13.27;7.25;;;;;;;;;;5032666;28;20044;-78
2022/11/01 11:27:55;;;;;;;;;;;;;;;;;;5036533;28;20026;-77
2022/11/01 11:30:34;;;;;;;12.40;7.18;;;;;;;;;;5037490;28;19913;-78
2022/11/01 11:33:01;;;;;;;12.50;6.78;;;;;;;;;;5037176;28;20044;-77
2022/11/01 11:35:28;;;;;;;15.82;7.20;;;;;;;;;;5037455;28;20079;-78
2022/11/01 11:38:03;;;;;;;13.60;7.65;;;;;;;;;;5036722;28;20033;-77
2022/11/01 11:40:42;;;;;;;11.20;7.40;;;;;;;;;;5036158;28;20025;-78
2022/11/01 11:43:32;;;;;;;13.88;7.13;;;;;;;;;;5036048;28;20500;-78
2022/11/01 11:46:13;;;;;;;14.13;7.20;;;;;;;;;;5035721;28;20548;-77
2022/11/01 11:49:23;;;;;;;10.98;7.22;;;;;;;;;;5037210;28;20474;-78
2022/11/01 11:51:51;;;;;;;12.63;7.47;;;;;;;;;;5026431;28;20091;-77
2022/11/01 11:54:36;;;;;;;12.43;7.65;;;;;;;;;;5037038;28;20052;-78
2022/11/01 11:57:20;;;;;;;12.82;7.47;;;;;;;;;;5018990;28;20017;-77
2022/11/01 11:59:54;;;;;;;13.73;7.63;;;;;;;;;;5036566;28;20036;-77
2022/11/01 12:02:23;;;;;;;13.13;7.28;;;;;;;;;;5037030;28;20029;-77
2022/11/01 12:04:56;;;;;;;14.52;8.10;;;;;;;;;;5036290;28;20139;-77
2022/11/01 12:07:22;;;;;;;16.23;8.17;;;;;;;;;;5036624;28;20025;-77
2022/11/01 12:09:47;;;;;;;17.60;7.97;;;;;;;;;;5034994;28;20030;-77
2022/11/01 12:12:23;;;;;;;12.25;7.13;;;;;;;;;;5036443;28;20263;-78
2022/11/01 12:14:49;;;;;;;19.60;8.23;;;;;;;;;;5037072;28;20075;-77
2022/11/01 12:17:22;;;;;;;12.27;7.30;;;;;;;;;;5037094;28;20105;-78
2022/11/01 12:19:48;;;;;;;15.27;8.07;;;;;;;;;;5034742;28;20021;-77
2022/11/01 12:22:13;;;;;;;16.10;8.70;;;;;;;;;;5035675;28;20036;-78
2022/11/01 12:24:47;;;;;;;14.20;8.35;;;;;;;;;;5036283;28;20025;-78
2022/11/01 12:27:20;;;;;;;15.80;7.85;;;;;;;;;;5036211;28;20025;-77
2022/11/01 12:29:52;;;;;;;14.65;8.10;;;;;;;;;;5036574;28;20041;-77
2022/11/01 12:32:24;;;;;;;18.35;8.00;;;;;;;;;;5036264;28;20382;-77
2022/11/01 12:34:52;;;;;;;17.02;8.95;;;;;;;;;;5036126;28;20025;-77
2022/11/01 12:37:22;;;;;;;15.70;8.07;;;;;;;;;;5035847;28;20474;-77
2022/11/01 12:39:57;;;;;;;16.50;8.15;;;;;;;;;;5033769;28;20048;-77
2022/11/01 12:42:35;;;;;;;13.25;8.60;;;;;;;;;;5035807;28;20379;-77
2022/11/01 12:45:10;;;;;;;15.43;8.30;;;;;;;;;;5037170;28;20060;-78
2022/11/01 12:47:42;;;;;;;16.05;8.27;;;;;;;;;;5035722;28;20037;-78
2022/11/01 12:50:18;;;;;;;12.77;8.80;;;;;;;;;;5035833;28;20397;-78
2022/11/01 12:52:47;;;;;;;15.30;8.35;;;;;;;;;;5035611;28;20032;-77
2022/11/01 12:55:32;;;;;;;14.05;8.20;;;;;;;;;;5036390;28;20100;-78
2022/11/01 12:57:57;;;;;;;14.35;7.93;;;;;;;;;;5035962;28;20027;-78
2022/11/01 13:00:30;;;;;;;15.68;8.65;;;;;;;;;;5035299;28;20393;-78
2022/11/01 13:03:33;;;;;;;18.70;8.40;;;;;;;;;;5034092;28;20030;-77
2022/11/01 13:06:17;;;;;;;15.32;8.50;;;;;;;;;;5035559;28;20048;-77
2022/11/01 13:08:59;;;;;;;17.55;9.23;;;;;;;;;;5036057;28;20565;-77
2022/11/01 13:11:38;;;;;;;13.70;8.13;;;;;;;;;;5018665;28;20025;-77
2022/11/01 13:14:35;;;;;;;16.00;8.63;;;;;;;;;;5035417;28;20033;-78
2022/11/01 13:17:21;;;;;;;17.02;8.30;;;;;;;;;;5035490;28;20120;-78
2022/11/01 13:20:18;;;;;;;15.65;8.73;;;;;;;;;;4984819;28;20041;-77
2022/11/01 13:22:50;;;;;;;16.05;9.30;;;;;;;;;;5035200;28;20028;-77
2022/11/01 13:25:36;;;;;;;16.85;8.55;;;;;;;;;;5034986;28;20035;-77
2022/11/01 13:28:14;;;;;;;16.65;9.05;;;;;;;;;;5034499;28;20025;-77
2022/11/01 13:30:48;;;;;;;14.73;8.90;;;;;;;;;;5034279;28;20040;-77
2022/11/01 13:33:20;;;;;;;;;;;;;;;;;;5035149;28;20236;-77
2022/11/01 13:36:05;;;;;;;16.52;9.35;;;;;;;;;;5034678;28;19973;-79
2022/11/01 13:38:49;;;;;;;15.98;9.25;;;;;;;;;;5016586;28;20049;-77
2022/11/01 13:41:23;;;;;;;17.35;9.35;;;;;;;;;;5034221;28;20021;-77
2022/11/01 13:44:02;;;;;;;18.67;9.55;;;;;;;;;;5034234;28;20408;-77
2022/11/01 13:46:37;;;;;;;18.50;10.10;;;;;;;;;;5034520;28;20031;-77
2022/11/01 13:49:08;;;;;;;18.92;10.38;;;;;;;;;;5034582;28;20022;-77
2022/11/01 13:52:03;;;;;;;21.63;10.27;;;;;;;;;;5033180;28;20104;-77
2022/11/01 13:54:36;;;;;;;16.67;9.57;;;;;;;;;;5034918;28;20037;-78
2022/11/01 13:57:09;;;;;;;27.10;10.73;;;;;;;;;;5033853;28;20113;-76
2022/11/01 13:59:43;;;;;;;17.95;10.02;;;;;;;;;;5034083;28;20444;-77
2022/11/01 14:02:24;;;;;;;20.10;9.80;;;;;;;;;;5034554;28;20025;-78
2022/11/01 14:04:59;;;;;;;19.85;10.18;;;;;;;;;;5033701;28;20025;-78
2022/11/01 14:07:31;;;;;;;17.42;10.25;;;;;;;;;;5033471;28;20059;-78
2022/11/01 14:09:56;;;;;;;22.63;10.10;;;;;;;;;;5035052;28;20029;-77
2022/11/01 14:12:38;;;;;;;16.73;9.90;;;;;;;;;;5034612;28;20551;-77
2022/11/01 14:15:21;;;;;;;21.30;10.05;;;;;;;;;;5033011;28;20434;-78
2022/11/01 14:18:01;;;;;;;20.40;10.93;;;;;;;;;;5032781;28;20021;-78
2022/11/01 14:20:32;;;;;;;19.73;9.77;;;;;;;;;;5034305;28;20120;-78
2022/11/01 14:23:27;;;;;;;18.25;9.60;;;;;;;;;;5036991;28;20032;-78
2022/11/01 14:26:17;;;;;;;21.90;10.95;;;;;;;;;;5033515;28;20025;-77
2022/11/01 14:28:43;;;;;;;20.25;10.18;;;;;;;;;;5033656;28;20026;-78
2022/11/01 14:31:09;;;;;;;16.58;10.13;;;;;;;;;;5033433;28;20449;-77
2022/11/01 14:33:35;;;;;;;20.52;10.35;;;;;;;;;;5033743;28;20056;-77
2022/11/01 14:36:02;;;;;;;22.42;11.25;;;;;;;;;;5035280;28;20025;-78
2022/11/01 14:38:32;;;;;;;17.20;9.45;;;;;;;;;;5034325;28;20116;-77
2022/11/01 14:40:59;;;;;;;18.92;10.35;;;;;;;;;;5016491;28;20032;-78
2022/11/01 14:43:39;;;;;;;19.25;10.02;;;;;;;;;;5034007;28;20343;-78
2022/11/01 14:46:12;;;;;;;18.60;10.45;;;;;;;;;;5034714;28;20037;-78
2022/11/01 14:48:43;;;;;;;20.08;10.57;;;;;;;;;;5032361;28;20025;-78
2022/11/01 14:51:31;;;;;;;16.42;10.18;;;;;;;;;;5033644;28;20478;-78
2022/11/01 14:54:22;;;;;;;22.55;10.88;;;;;;;;;;5033592;28;20029;-76
2022/11/01 14:56:52;;;;;;;19.98;10.93;;;;;;;;;;5033151;28;20143;-77